Time;durP1;ratioP1;P1;durP2;ratioP2;P2;SDS_P1;SDS_P2;PMS_P1;PMS_P2;Temp;Humidity;BMP_temperature;BMP_pressure;BME280_temperature;BME280_humidity;BME280_pressure;Samples;Min_cycle;Max_cycle;Signal;HPM_P1;HPM_P2
2023/09/16 00:01:36;;;;;;;4.00;3.50;;;18.20;93.20;;;;;;5052848;28;20429;-72
2023/09/16 00:04:03;;;;;;;4.57;3.80;;;18.30;92.90;;;;;;5041044;28;20460;-73
2023/09/16 00:06:29;;;;;;;4.30;3.90;;;18.20;93.20;;;;;;5042651;28;20421;-71
2023/09/16 00:08:56;;;;;;;4.00;3.60;;;18.30;93.50;;;;;;5041156;28;20431;-72
2023/09/16 00:11:25;;;;;;;4.00;3.60;;;18.20;93.80;;;;;;5043649;28;20500;-71
2023/09/16 00:13:52;;;;;;;4.30;3.90;;;18.20;93.20;;;;;;5043682;28;20503;-73
2023/09/16 00:16:19;;;;;;;4.10;3.70;;;18.20;92.80;;;;;;5043110;28;20434;-70
2023/09/16 00:18:45;;;;;;;3.97;3.63;;;18.20;92.90;;;;;;5039366;28;20432;-71
2023/09/16 00:21:14;;;;;;;4.25;3.85;;;18.20;92.80;;;;;;5041961;28;20512;-71
2023/09/16 00:23:42;;;;;;;3.90;3.50;;;18.10;93.20;;;;;;5046860;28;20433;-73
2023/09/16 00:26:09;;;;;;;3.60;3.30;;;18.10;93.20;;;;;;5046301;28;20425;-73
2023/09/16 00:28:37;;;;;;;3.95;3.33;;;18.10;93.40;;;;;;5041605;28;20431;-73
2023/09/16 00:31:06;;;;;;;3.80;3.33;;;18.10;93.30;;;;;;5043249;28;20422;-71
2023/09/16 00:33:32;;;;;;;4.30;3.85;;;18.00;93.10;;;;;;5041641;28;20454;-71
2023/09/16 00:35:59;;;;;;;4.38;3.83;;;18.00;93.40;;;;;;5042988;28;20803;-73
2023/09/16 00:38:26;;;;;;;4.00;3.70;;;18.00;93.90;;;;;;5041937;28;20444;-72
2023/09/16 00:40:53;;;;;;;4.07;3.70;;;18.00;94.10;;;;;;5045883;28;20444;-73
2023/09/16 00:43:19;;;;;;;4.40;4.00;;;18.00;94.30;;;;;;5043447;28;20812;-71
2023/09/16 00:45:47;;;;;;;4.70;4.10;;;18.00;95.00;;;;;;5045099;28;20433;-71
2023/09/16 00:48:17;;;;;;;4.03;3.58;;;18.00;95.40;;;;;;5042834;28;20450;-72
2023/09/16 00:50:45;;;;;;;5.00;4.00;;;18.00;95.30;;;;;;5038455;28;20537;-73
2023/09/16 00:53:14;;;;;;;4.10;3.60;;;18.00;95.10;;;;;;5043778;28;20447;-72
2023/09/16 00:55:41;;;;;;;4.60;3.80;;;17.90;95.30;;;;;;5039437;28;20917;-72
2023/09/16 00:58:10;;;;;;;4.47;4.07;;;17.90;95.20;;;;;;5041088;28;20428;-72
2023/09/16 01:00:37;;;;;;;4.70;3.97;;;17.90;95.30;;;;;;5044711;28;20925;-70
2023/09/16 01:03:06;;;;;;;4.53;3.50;;;17.90;95.20;;;;;;5040444;28;20429;-72
2023/09/16 01:05:34;;;;;;;3.90;3.60;;;17.90;95.50;;;;;;5044219;28;20449;-71
2023/09/16 01:08:01;;;;;;;4.15;3.85;;;17.80;95.60;;;;;;5041989;28;20436;-73
2023/09/16 01:10:28;;;;;;;4.40;3.80;;;17.80;95.50;;;;;;5043970;28;20445;-72
2023/09/16 01:12:56;;;;;;;5.20;4.20;;;17.80;95.60;;;;;;5044413;28;20429;-71
2023/09/16 01:15:27;;;;;;;4.40;4.00;;;17.80;96.40;;;;;;5041617;28;20425;-72
2023/09/16 01:18:06;;;;;;;3.95;3.63;;;17.70;96.60;;;;;;5046432;28;20433;-73
2023/09/16 01:20:38;;;;;;;4.63;3.90;;;17.70;96.80;;;;;;5046861;28;20958;-73
2023/09/16 01:23:06;;;;;;;3.65;3.35;;;17.60;95.90;;;;;;5040669;28;20448;-71
2023/09/16 01:25:34;;;;;;;3.85;3.30;;;17.60;96.00;;;;;;5036775;28;21016;-71
2023/09/16 01:28:01;;;;;;;4.50;3.80;;;17.60;96.30;;;;;;5038052;28;20960;-71
2023/09/16 01:30:30;;;;;;;3.80;3.40;;;17.50;95.90;;;;;;5046308;28;20435;-70
2023/09/16 01:33:06;;;;;;;4.00;3.70;;;17.50;96.20;;;;;;5044825;28;20460;-71
2023/09/16 01:35:37;;;;;;;3.78;3.47;;;17.50;96.00;;;;;;5044650;28;20464;-72
2023/09/16 01:38:06;;;;;;;3.65;3.35;;;17.40;96.10;;;;;;5041308;28;20911;-71
2023/09/16 01:40:36;;;;;;;4.10;3.70;;;17.40;96.30;;;;;;5045016;28;20432;-72
2023/09/16 01:43:04;;;;;;;4.03;3.72;;;17.40;96.10;;;;;;5039931;28;20456;-72
2023/09/16 01:45:40;;;;;;;4.30;3.90;;;17.40;96.00;;;;;;5042552;28;20436;-73
2023/09/16 01:48:07;;;;;;;4.10;3.70;;;17.30;95.90;;;;;;5042542;28;20435;-71
2023/09/16 01:50:34;;;;;;;4.23;3.83;;;17.30;96.00;;;;;;5042522;28;20438;-72
2023/09/16 01:53:01;;;;;;;4.73;4.33;;;17.30;96.80;;;;;;5037849;28;20440;-71
2023/09/16 01:55:30;;;;;;;4.47;3.80;;;17.30;96.90;;;;;;5041559;28;20517;-72
2023/09/16 01:57:58;;;;;;;4.30;3.90;;;17.20;96.70;;;;;;5040423;28;20421;-71
2023/09/16 02:00:25;;;;;;;4.60;4.30;;;17.20;97.00;;;;;;5042452;28;20608;-70
2023/09/16 02:02:52;;;;;;;4.50;4.10;;;17.20;97.00;;;;;;5043788;28;20438;-72
2023/09/16 02:05:19;;;;;;;4.77;4.20;;;17.10;97.40;;;;;;5041505;28;20794;-72
2023/09/16 02:07:46;;;;;;;4.05;3.70;;;17.10;97.70;;;;;;5039142;28;20429;-73
2023/09/16 02:10:13;;;;;;;4.63;3.83;;;17.10;97.60;;;;;;5038517;28;20443;-73
2023/09/16 02:12:39;;;;;;;4.57;3.90;;;17.10;98.00;;;;;;5042529;28;20850;-72
2023/09/16 02:15:09;;;;;;;4.57;4.13;;;17.10;97.80;;;;;;5041021;28;20445;-73
2023/09/16 02:17:36;;;;;;;3.92;3.63;;;17.10;97.80;;;;;;5043690;28;20433;-72
2023/09/16 02:20:03;;;;;;;4.50;4.10;;;17.00;97.70;;;;;;5042270;28;20433;-73
2023/09/16 02:22:30;;;;;;;3.80;3.50;;;17.00;98.50;;;;;;5038627;28;20450;-73
2023/09/16 02:24:56;;;;;;;4.30;4.00;;;17.00;98.10;;;;;;5061532;22;20494;-70
2023/09/16 02:27:23;;;;;;;6.13;4.20;;;17.00;97.90;;;;;;5024151;28;20659;-70
2023/09/16 02:29:50;;;;;;;4.55;4.15;;;16.90;97.90;;;;;;5034863;28;20828;-70
2023/09/16 02:32:18;;;;;;;4.30;3.90;;;16.90;98.10;;;;;;5027568;28;20454;-69
2023/09/16 02:34:44;;;;;;;5.10;4.60;;;16.90;98.00;;;;;;5033878;28;20446;-70
2023/09/16 02:37:11;;;;;;;5.03;4.00;;;16.90;98.50;;;;;;5024317;28;20499;-70
2023/09/16 02:39:38;;;;;;;4.43;4.03;;;16.80;98.60;;;;;;5022430;28;20453;-70
2023/09/16 02:42:05;;;;;;;4.30;3.90;;;16.80;98.70;;;;;;5020590;28;20439;-70
2023/09/16 02:44:32;;;;;;;4.30;3.88;;;16.80;98.50;;;;;;5018640;28;20449;-70
2023/09/16 02:46:58;;;;;;;4.50;4.10;;;16.80;98.40;;;;;;5019849;28;20435;-70
2023/09/16 02:49:29;;;;;;;4.50;4.10;;;16.70;98.80;;;;;;5019513;28;20483;-69
2023/09/16 02:51:56;;;;;;;4.60;4.20;;;16.70;98.70;;;;;;5018921;28;20442;-70
2023/09/16 02:54:23;;;;;;;4.90;4.50;;;16.70;98.70;;;;;;5016371;28;20902;-70
2023/09/16 02:56:49;;;;;;;4.43;4.03;;;16.70;98.80;;;;;;5015326;28;20538;-70
2023/09/16 02:59:16;;;;;;;5.00;4.50;;;16.70;98.90;;;;;;5022934;28;20435;-70
2023/09/16 03:01:43;;;;;;;4.70;4.30;;;16.70;99.10;;;;;;5019354;28;20917;-69
2023/09/16 03:04:10;;;;;;;4.68;4.28;;;16.70;99.20;;;;;;5018833;28;20435;-69
2023/09/16 03:06:38;;;;;;;5.22;4.72;;;16.70;99.20;;;;;;5018721;28;20781;-69
2023/09/16 03:09:05;;;;;;;4.45;4.05;;;16.70;99.40;;;;;;5019624;28;20433;-69
2023/09/16 03:11:31;;;;;;;4.70;4.30;;;16.70;99.70;;;;;;5020566;28;20435;-69
2023/09/16 03:13:58;;;;;;;4.65;4.25;;;16.70;99.90;;;;;;5021676;28;20453;-71
2023/09/16 03:16:25;;;;;;;5.82;4.50;;;16.70;99.90;;;;;;5021853;28;20442;-71
2023/09/16 03:18:53;;;;;;;4.68;4.20;;;16.70;99.90;;;;;;5020455;28;20428;-71
2023/09/16 03:21:23;;;;;;;5.10;4.30;;;16.70;99.90;;;;;;5020385;28;20538;-71
2023/09/16 03:23:51;;;;;;;6.07;4.80;;;16.70;99.90;;;;;;5018898;28;20449;-71
2023/09/16 03:26:18;;;;;;;5.22;4.82;;;16.60;99.90;;;;;;5021650;28;20443;-71
2023/09/16 03:28:46;;;;;;;4.70;4.30;;;16.70;99.90;;;;;;5022786;28;20438;-71
2023/09/16 03:31:12;;;;;;;4.63;4.22;;;16.70;99.90;;;;;;5022161;28;20442;-71
2023/09/16 03:33:39;;;;;;;4.70;4.30;;;16.70;99.90;;;;;;5018640;28;20733;-71
2023/09/16 03:36:07;;;;;;;5.03;4.40;;;16.70;99.90;;;;;;5022592;28;20446;-71
2023/09/16 03:38:35;;;;;;;5.03;4.63;;;16.60;99.90;;;;;;5026102;28;20869;-69
2023/09/16 03:41:03;;;;;;;4.80;4.40;;;16.70;99.90;;;;;;5023527;28;20778;-71
2023/09/16 03:43:30;;;;;;;4.97;4.57;;;16.60;99.90;;;;;;5019784;28;20438;-71
2023/09/16 03:45:57;;;;;;;4.60;4.10;;;16.60;99.90;;;;;;5022255;28;20435;-71
2023/09/16 03:48:23;;;;;;;4.90;4.50;;;16.60;99.90;;;;;;5020369;28;20537;-72
2023/09/16 03:50:50;;;;;;;4.40;4.10;;;16.60;99.90;;;;;;5026215;28;20434;-69
2023/09/16 03:53:18;;;;;;;4.60;4.20;;;16.60;99.90;;;;;;5019199;28;21938;-69
2023/09/16 03:55:46;;;;;;;4.70;4.30;;;16.50;99.90;;;;;;5023134;28;20565;-69
2023/09/16 03:58:14;;;;;;;4.28;3.88;;;16.50;99.90;;;;;;5018635;28;20496;-69
2023/09/16 04:00:41;;;;;;;5.10;4.60;;;16.50;99.90;;;;;;5020727;28;20909;-69
2023/09/16 04:03:08;;;;;;;4.40;4.10;;;16.50;99.90;;;;;;5019952;28;20439;-69
2023/09/16 04:05:34;;;;;;;4.10;3.80;;;16.50;99.90;;;;;;5019288;28;20540;-69
2023/09/16 04:08:02;;;;;;;4.60;4.20;;;16.50;99.90;;;;;;5020733;28;20618;-72
2023/09/16 04:10:28;;;;;;;5.00;4.60;;;16.50;99.90;;;;;;5020817;28;20431;-71
2023/09/16 04:12:55;;;;;;;4.90;4.50;;;16.50;99.90;;;;;;5022548;28;20781;-71
2023/09/16 04:15:23;;;;;;;4.60;4.20;;;16.50;99.90;;;;;;5025893;28;20434;-70
2023/09/16 04:17:51;;;;;;;4.80;4.40;;;16.50;99.90;;;;;;5023346;28;20443;-71
2023/09/16 04:20:19;;;;;;;5.05;4.65;;;16.50;99.90;;;;;;5029538;28;20935;-71
2023/09/16 04:22:45;;;;;;;4.82;4.32;;;16.50;99.90;;;;;;5023928;28;21254;-71
2023/09/16 04:25:12;;;;;;;5.00;4.50;;;16.50;99.90;;;;;;5022118;28;20449;-70
2023/09/16 04:27:39;;;;;;;4.20;3.80;;;16.50;99.90;;;;;;5021197;28;20434;-71
2023/09/16 04:30:07;;;;;;;4.60;4.20;;;16.40;99.90;;;;;;5021631;28;20427;-69
2023/09/16 04:32:35;;;;;;;4.72;4.28;;;16.40;99.90;;;;;;5023006;28;20461;-71
2023/09/16 04:35:01;;;;;;;5.18;4.50;;;16.40;99.90;;;;;;5031125;28;20435;-70
2023/09/16 04:37:28;;;;;;;5.00;4.60;;;16.40;99.90;;;;;;5018918;28;20442;-71
2023/09/16 04:39:55;;;;;;;4.80;4.40;;;16.40;99.90;;;;;;5023039;28;20500;-70
2023/09/16 04:42:27;;;;;;;4.60;4.20;;;16.40;99.90;;;;;;5022029;28;20435;-69
2023/09/16 04:44:54;;;;;;;5.00;4.50;;;16.30;99.90;;;;;;5020802;28;20594;-69
2023/09/16 04:47:21;;;;;;;5.15;4.75;;;16.30;99.90;;;;;;5020776;28;20898;-69
2023/09/16 04:49:50;;;;;;;5.27;4.77;;;16.30;99.90;;;;;;5023395;28;20431;-69
2023/09/16 04:52:17;;;;;;;5.15;4.65;;;16.30;99.90;;;;;;5023115;28;20734;-69
2023/09/16 04:54:44;;;;;;;5.32;4.60;;;16.30;99.90;;;;;;5023306;28;20603;-69
2023/09/16 04:57:11;;;;;;;4.60;4.20;;;16.30;99.90;;;;;;5021121;28;20443;-69
2023/09/16 04:59:38;;;;;;;4.90;4.50;;;16.20;99.90;;;;;;5021255;28;20500;-69
2023/09/16 05:02:05;;;;;;;5.13;4.63;;;16.20;99.90;;;;;;5021542;28;20487;-69
2023/09/16 05:04:32;;;;;;;4.70;4.30;;;16.20;99.90;;;;;;5023377;28;21111;-69
2023/09/16 05:07:00;;;;;;;5.00;4.60;;;16.20;99.90;;;;;;5021532;28;20470;-69
2023/09/16 05:09:26;;;;;;;4.90;4.43;;;16.20;99.90;;;;;;5021073;28;20427;-69
2023/09/16 05:11:53;;;;;;;5.67;4.70;;;16.20;99.90;;;;;;5023165;28;20827;-69
2023/09/16 05:14:20;;;;;;;4.50;4.20;;;16.20;99.90;;;;;;5023866;28;20461;-69
2023/09/16 05:16:46;;;;;;;4.93;4.53;;;16.10;99.90;;;;;;5030241;28;20932;-69
2023/09/16 05:19:13;;;;;;;5.03;4.63;;;16.10;99.90;;;;;;5021041;28;20439;-69
2023/09/16 05:21:40;;;;;;;5.10;4.70;;;16.10;99.90;;;;;;5020773;28;20907;-69
2023/09/16 05:24:08;;;;;;;5.28;4.57;;;16.10;99.90;;;;;;5028495;28;20460;-69
2023/09/16 05:26:35;;;;;;;4.97;4.47;;;16.10;99.90;;;;;;5036023;28;20471;-69
2023/09/16 05:29:02;;;;;;;4.97;4.57;;;16.10;99.90;;;;;;5038824;28;20444;-69
2023/09/16 05:31:28;;;;;;;5.47;5.00;;;16.10;99.90;;;;;;5040957;28;20428;-69
2023/09/16 05:33:55;;;;;;;4.90;4.50;;;16.10;99.90;;;;;;5042435;28;20480;-69
2023/09/16 05:36:23;;;;;;;5.38;4.88;;;16.10;99.90;;;;;;5046067;28;20433;-69
2023/09/16 05:38:50;;;;;;;4.93;4.53;;;16.10;99.90;;;;;;5041950;28;20463;-69
2023/09/16 05:41:18;;;;;;;4.60;4.20;;;16.10;99.90;;;;;;5041122;28;20452;-69
2023/09/16 05:43:45;;;;;;;5.40;4.90;;;16.10;99.90;;;;;;5041333;28;20437;-69
2023/09/16 05:46:12;;;;;;;5.30;4.90;;;16.10;99.90;;;;;;5047123;28;20452;-69
2023/09/16 05:48:39;;;;;;;4.90;4.50;;;16.10;99.90;;;;;;5046117;28;20429;-69
2023/09/16 05:51:07;;;;;;;4.75;4.30;;;16.20;99.90;;;;;;5041656;28;20725;-70
2023/09/16 05:53:36;;;;;;;4.88;4.38;;;16.10;99.90;;;;;;5039272;28;20435;-69
2023/09/16 05:56:04;;;;;;;4.80;4.40;;;16.10;99.90;;;;;;5042042;28;20440;-69
2023/09/16 05:58:32;;;;;;;4.93;4.53;;;16.20;99.90;;;;;;5040457;28;20461;-70
2023/09/16 06:00:59;;;;;;;4.77;4.37;;;16.20;99.90;;;;;;5043801;28;20446;-69
2023/09/16 06:03:26;;;;;;;4.93;4.43;;;16.20;99.90;;;;;;5039888;28;20805;-70
2023/09/16 06:05:58;;;;;;;4.90;4.40;;;16.20;99.90;;;;;;5046556;28;20443;-70
2023/09/16 06:08:25;;;;;;;5.13;4.70;;;16.20;99.90;;;;;;5041643;28;20441;-70
2023/09/16 06:10:51;;;;;;;5.07;4.57;;;16.30;99.90;;;;;;5036287;28;20441;-68
2023/09/16 06:13:18;;;;;;;5.20;4.70;;;16.30;99.90;;;;;;5036343;28;21109;-66
2023/09/16 06:15:46;;;;;;;6.20;4.70;;;16.30;99.90;;;;;;5037069;28;20429;-66
2023/09/16 06:18:13;;;;;;;4.70;4.30;;;16.40;99.90;;;;;;5038787;28;20538;-66
2023/09/16 06:20:40;;;;;;;4.90;4.50;;;16.40;99.90;;;;;;5044212;28;20448;-65
2023/09/16 06:23:07;;;;;;;5.10;4.60;;;16.50;99.90;;;;;;5045527;28;20486;-66
2023/09/16 06:25:34;;;;;;;5.65;4.50;;;16.50;99.90;;;;;;5031988;28;20431;-66
2023/09/16 06:28:03;;;;;;;4.47;4.07;;;16.60;99.90;;;;;;5019615;28;20431;-66
2023/09/16 06:30:29;;;;;;;4.60;4.20;;;16.60;99.90;;;;;;5014150;28;20439;-70
2023/09/16 06:32:58;;;;;;;4.80;4.32;;;16.70;99.90;;;;;;5016494;28;20433;-71
2023/09/16 06:35:25;;;;;;;5.47;4.75;;;16.70;99.90;;;;;;5022088;28;20526;-71
2023/09/16 06:37:52;;;;;;;4.30;4.00;;;16.70;99.90;;;;;;5022452;28;20434;-71
2023/09/16 06:40:18;;;;;;;4.47;4.07;;;16.80;99.90;;;;;;5023383;28;20436;-70
2023/09/16 06:42:45;;;;;;;4.45;4.05;;;16.80;99.90;;;;;;5022908;28;20435;-70
2023/09/16 06:45:13;;;;;;;5.00;4.60;;;16.90;99.90;;;;;;5025238;28;20458;-71
2023/09/16 06:47:39;;;;;;;4.38;3.97;;;17.00;99.90;;;;;;5021458;28;20431;-70
2023/09/16 06:50:09;;;;;;;4.63;4.23;;;17.00;99.50;;;;;;5022760;28;20502;-71
2023/09/16 06:52:36;;;;;;;4.10;3.75;;;17.10;99.10;;;;;;5018282;28;20454;-71
2023/09/16 06:55:03;;;;;;;4.88;4.07;;;17.20;99.00;;;;;;5018592;28;20488;-71
2023/09/16 06:57:30;;;;;;;4.03;3.72;;;17.30;98.80;;;;;;5016824;28;20427;-73
2023/09/16 06:59:57;;;;;;;5.90;4.00;;;17.40;98.40;;;;;;5023424;28;20438;-73
2023/09/16 07:02:23;;;;;;;3.70;3.40;;;17.40;98.10;;;;;;5021772;28;20438;-73
2023/09/16 07:04:50;;;;;;;3.90;3.60;;;17.50;97.90;;;;;;5026681;28;20431;-72
2023/09/16 07:07:20;;;;;;;3.70;3.40;;;17.60;97.60;;;;;;5027000;28;20441;-72
2023/09/16 07:09:46;;;;;;;3.72;3.40;;;17.70;96.90;;;;;;5023287;28;20455;-73
2023/09/16 07:12:13;;;;;;;5.20;3.65;;;17.70;96.70;;;;;;5016286;28;20466;-72
2023/09/16 07:14:40;;;;;;;4.38;3.97;;;17.80;96.60;;;;;;5022026;28;20431;-73
2023/09/16 07:17:08;;;;;;;4.10;3.70;;;17.90;96.30;;;;;;5024365;28;21080;-73
2023/09/16 07:19:35;;;;;;;4.00;3.60;;;18.00;96.30;;;;;;5021067;28;20493;-73
2023/09/16 07:22:02;;;;;;;4.00;3.60;;;18.10;95.60;;;;;;5027000;28;20438;-71
2023/09/16 07:24:30;;;;;;;3.90;3.50;;;18.30;95.80;;;;;;5019999;28;20889;-72
2023/09/16 07:26:56;;;;;;;3.72;3.20;;;18.40;95.00;;;;;;5024427;28;20444;-71
2023/09/16 07:29:23;;;;;;;3.90;3.60;;;18.50;94.40;;;;;;5021339;28;20924;-72
2023/09/16 07:31:50;;;;;;;5.05;4.13;;;18.60;94.00;;;;;;5022242;28;20551;-72
2023/09/16 07:34:19;;;;;;;4.55;3.70;;;18.80;93.40;;;;;;5023158;28;20443;-73
2023/09/16 07:36:46;;;;;;;3.90;3.60;;;18.90;92.70;;;;;;5024429;28;20542;-73
2023/09/16 07:39:12;;;;;;;4.05;3.20;;;18.90;92.50;;;;;;5022640;28;20989;-73
2023/09/16 07:41:41;;;;;;;3.60;3.30;;;19.00;92.40;;;;;;5024178;28;20451;-73
2023/09/16 07:44:07;;;;;;;3.80;3.40;;;19.20;92.20;;;;;;5025530;28;20434;-71
2023/09/16 07:46:35;;;;;;;4.33;3.60;;;19.50;91.40;;;;;;5030270;28;20440;-70
2023/09/16 07:49:02;;;;;;;3.67;3.38;;;19.60;91.10;;;;;;5028492;28;20516;-72
2023/09/16 07:51:28;;;;;;;4.35;3.90;;;19.70;90.60;;;;;;5026204;28;20551;-72
2023/09/16 07:53:55;;;;;;;3.40;3.10;;;19.60;91.00;;;;;;5025391;28;20446;-72
2023/09/16 07:56:22;;;;;;;3.60;3.30;;;19.60;90.40;;;;;;5020591;28;20951;-72
2023/09/16 07:58:50;;;;;;;3.83;3.53;;;19.60;90.80;;;;;;5025989;28;20446;-73
2023/09/16 08:01:17;;;;;;;3.78;3.17;;;19.60;91.00;;;;;;5021595;28;20792;-73
2023/09/16 08:03:43;;;;;;;3.75;3.45;;;19.80;90.60;;;;;;5025149;28;20431;-73
2023/09/16 08:06:10;;;;;;;3.80;3.42;;;19.90;89.70;;;;;;5020215;28;20441;-73
2023/09/16 08:08:37;;;;;;;3.47;3.17;;;20.10;89.40;;;;;;5025373;28;20446;-72
2023/09/16 08:11:04;;;;;;;4.90;3.50;;;20.30;88.50;;;;;;5024915;28;20426;-72
2023/09/16 08:13:30;;;;;;;3.40;3.10;;;20.50;86.80;;;;;;5021095;28;20419;-73
2023/09/16 08:15:58;;;;;;;3.42;3.13;;;20.60;85.90;;;;;;5024236;28;20766;-71
2023/09/16 08:18:25;;;;;;;3.20;2.90;;;20.80;84.70;;;;;;5027337;28;20778;-72
2023/09/16 08:20:52;;;;;;;3.58;3.28;;;20.90;83.30;;;;;;5024153;28;20431;-73
2023/09/16 08:23:19;;;;;;;3.10;2.90;;;21.00;82.60;;;;;;5026719;28;20419;-72
2023/09/16 08:25:46;;;;;;;4.15;3.22;;;21.00;82.40;;;;;;5043365;28;20764;-73
2023/09/16 08:28:13;;;;;;;3.80;3.50;;;21.20;81.80;;;;;;5043414;28;20437;-73
2023/09/16 08:30:39;;;;;;;3.40;2.90;;;21.30;81.30;;;;;;5035477;28;20441;-71
2023/09/16 08:33:09;;;;;;;3.90;3.50;;;21.50;80.70;;;;;;5052103;28;20484;-73
2023/09/16 08:35:36;;;;;;;4.07;3.00;;;21.60;80.00;;;;;;5045630;28;20535;-71
2023/09/16 08:38:02;;;;;;;3.45;3.17;;;21.70;78.70;;;;;;5046736;28;20504;-73
2023/09/16 08:40:32;;;;;;;4.10;3.70;;;21.80;79.60;;;;;;5044509;28;21362;-73
2023/09/16 08:43:09;;;;;;;3.50;3.20;;;21.90;78.80;;;;;;5044731;28;20514;-73
2023/09/16 08:45:43;;;;;;;3.50;3.20;;;21.90;78.60;;;;;;5043481;28;20518;-72
2023/09/16 08:48:21;;;;;;;3.50;3.20;;;22.00;77.70;;;;;;5044675;28;20726;-73
2023/09/16 08:50:50;;;;;;;3.58;3.28;;;22.00;77.40;;;;;;5041685;28;20437;-72
2023/09/16 08:53:20;;;;;;;3.50;3.20;;;22.10;77.50;;;;;;5042934;28;21170;-73
2023/09/16 08:55:48;;;;;;;3.80;3.40;;;22.10;77.80;;;;;;5052552;28;20437;-72
2023/09/16 08:58:16;;;;;;;3.35;3.05;;;22.20;77.30;;;;;;5040488;28;20429;-73
2023/09/16 09:00:43;;;;;;;3.85;3.55;;;22.40;76.90;;;;;;5039920;28;20448;-72
2023/09/16 09:03:11;;;;;;;3.80;3.50;;;22.60;75.90;;;;;;5043194;28;20421;-73
2023/09/16 09:05:38;;;;;;;3.63;3.33;;;22.80;75.20;;;;;;5045481;28;20444;-73
2023/09/16 09:08:08;;;;;;;3.75;3.45;;;23.10;74.40;;;;;;5045103;28;20443;-73
2023/09/16 09:10:36;;;;;;;3.92;3.53;;;23.20;73.60;;;;;;5044363;28;20437;-73
2023/09/16 09:13:04;;;;;;;3.70;3.40;;;23.30;73.30;;;;;;5041194;28;20429;-72
2023/09/16 09:15:33;;;;;;;3.80;3.40;;;23.30;73.00;;;;;;5044509;28;20474;-73
2023/09/16 09:18:00;;;;;;;3.63;3.33;;;23.50;72.60;;;;;;5049020;28;20437;-73
2023/09/16 09:20:29;;;;;;;4.10;3.10;;;23.60;72.00;;;;;;5039947;28;20429;-73
2023/09/16 09:22:57;;;;;;;3.90;3.60;;;23.80;71.40;;;;;;5043467;28;20437;-73
2023/09/16 09:25:25;;;;;;;3.60;3.08;;;24.10;70.60;;;;;;5032746;28;20443;-73
2023/09/16 09:27:53;;;;;;;3.70;3.40;;;24.20;69.50;;;;;;5027404;28;20705;-73
2023/09/16 09:30:26;;;;;;;3.70;3.40;;;24.50;68.50;;;;;;5030285;28;20457;-73
2023/09/16 09:32:55;;;;;;;4.00;3.60;;;24.70;68.10;;;;;;5023085;28;20434;-73
2023/09/16 09:35:22;;;;;;;5.80;3.80;;;24.90;67.70;;;;;;5025378;28;20882;-73
2023/09/16 09:37:51;;;;;;;6.10;5.50;;;25.00;67.60;;;;;;5028471;28;20525;-73
2023/09/16 09:40:18;;;;;;;3.83;3.53;;;25.20;66.40;;;;;;5022754;28;20821;-72
2023/09/16 09:42:46;;;;;;;3.75;3.42;;;25.40;66.00;;;;;;5016186;28;20439;-73
2023/09/16 09:45:15;;;;;;;3.97;3.58;;;25.60;64.00;;;;;;5015533;28;20470;-73
2023/09/16 09:47:42;;;;;;;3.47;3.17;;;25.60;64.70;;;;;;5022315;28;20431;-73
2023/09/16 09:50:13;;;;;;;3.60;3.30;;;25.70;64.30;;;;;;5021484;28;20501;-73
2023/09/16 09:52:40;;;;;;;5.28;3.20;;;25.80;63.20;;;;;;5023882;28;20468;-73
2023/09/16 09:55:10;;;;;;;3.90;3.50;;;25.80;63.30;;;;;;5024721;28;20526;-73
2023/09/16 09:57:37;;;;;;;3.47;2.90;;;25.90;63.00;;;;;;5023566;28;20934;-73
2023/09/16 10:00:06;;;;;;;3.75;3.45;;;26.00;63.20;;;;;;5022294;28;20427;-73
2023/09/16 10:02:33;;;;;;;5.30;3.45;;;26.10;62.40;;;;;;5023631;28;20442;-73
2023/09/16 10:05:01;;;;;;;4.10;3.80;;;26.30;61.60;;;;;;5024175;28;20441;-73
2023/09/16 10:07:29;;;;;;;3.70;3.40;;;26.30;61.40;;;;;;5024045;28;20505;-73
2023/09/16 10:09:56;;;;;;;3.80;3.50;;;26.30;61.90;;;;;;5022783;28;20502;-73
2023/09/16 10:12:24;;;;;;;3.40;3.10;;;26.30;61.20;;;;;;5023234;28;20437;-73
2023/09/16 10:14:52;;;;;;;3.50;3.20;;;26.50;61.70;;;;;;5015385;28;20535;-73
2023/09/16 10:17:19;;;;;;;3.20;3.00;;;26.70;60.50;;;;;;5017836;28;20897;-73
2023/09/16 10:19:46;;;;;;;3.60;3.30;;;26.80;59.60;;;;;;5020185;28;20440;-73
2023/09/16 10:22:14;;;;;;;3.70;3.30;;;26.90;59.30;;;;;;5021252;28;20765;-73
2023/09/16 10:24:42;;;;;;;3.40;3.10;;;26.80;59.90;;;;;;5029205;28;20642;-73
2023/09/16 10:27:15;;;;;;;3.40;3.20;;;27.00;58.90;;;;;;5038185;28;20485;-73
2023/09/16 10:29:44;;;;;;;4.00;3.60;;;27.20;58.00;;;;;;5033692;28;20512;-74
2023/09/16 10:32:12;;;;;;;3.83;3.53;;;27.40;57.00;;;;;;5041251;28;20818;-73
2023/09/16 10:34:39;;;;;;;3.80;3.50;;;27.60;56.40;;;;;;5042624;28;20429;-73
2023/09/16 10:37:06;;;;;;;3.78;3.47;;;27.60;56.10;;;;;;5041501;28;20429;-73
2023/09/16 10:39:35;;;;;;;3.60;3.30;;;27.50;56.30;;;;;;5044127;28;20444;-74
2023/09/16 10:42:03;;;;;;;5.10;3.40;;;27.40;56.30;;;;;;5041466;28;20498;-73
2023/09/16 10:44:31;;;;;;;3.60;3.30;;;27.40;56.20;;;;;;5037970;28;20433;-73
2023/09/16 10:47:04;;;;;;;3.78;3.47;;;27.60;56.30;;;;;;5040418;28;20772;-73
2023/09/16 10:49:30;;;;;;;3.83;3.53;;;27.80;54.70;;;;;;5042267;28;20483;-73
2023/09/16 10:52:03;;;;;;;4.00;3.70;;;27.90;54.30;;;;;;5039187;28;20445;-73
2023/09/16 10:54:37;;;;;;;3.20;2.90;;;28.10;53.10;;;;;;5036558;28;20429;-73
2023/09/16 10:57:12;;;;;;;3.80;3.50;;;28.10;53.90;;;;;;5035560;28;20495;-73
2023/09/16 10:59:41;;;;;;;3.40;3.10;;;28.40;53.10;;;;;;5038664;28;20449;-73
2023/09/16 11:02:18;;;;;;;3.53;3.22;;;28.50;51.00;;;;;;5039727;28;20429;-78
2023/09/16 11:04:46;;;;;;;3.15;2.95;;;28.50;51.20;;;;;;5038373;28;20424;-76
2023/09/16 11:07:14;;;;;;;3.70;3.40;;;28.40;51.90;;;;;;5041048;28;20497;-78
2023/09/16 11:09:42;;;;;;;3.63;3.38;;;28.30;51.50;;;;;;5033831;28;20988;-77
2023/09/16 11:12:10;;;;;;;3.45;3.10;;;28.20;53.10;;;;;;5037981;28;20457;-78
2023/09/16 11:14:37;;;;;;;3.50;3.20;;;28.10;54.60;;;;;;5037761;28;20502;-74
2023/09/16 11:17:14;;;;;;;3.40;3.10;;;27.90;55.80;;;;;;5037653;28;20483;-72
2023/09/16 11:19:41;;;;;;;3.55;3.25;;;27.90;56.00;;;;;;5035353;28;20562;-74
2023/09/16 11:22:09;;;;;;;4.00;3.60;;;28.00;53.60;;;;;;5042708;28;20429;-76
2023/09/16 11:24:36;;;;;;;3.88;3.58;;;28.30;52.60;;;;;;5035781;28;20496;-72
2023/09/16 11:27:03;;;;;;;3.58;3.20;;;28.40;52.40;;;;;;5038499;28;20458;-72
2023/09/16 11:29:31;;;;;;;3.80;3.50;;;28.60;52.10;;;;;;5045368;28;20520;-74
2023/09/16 11:31:58;;;;;;;3.40;3.20;;;28.90;50.30;;;;;;5044055;28;20483;-75
2023/09/16 11:34:28;;;;;;;3.60;3.40;;;29.00;50.20;;;;;;5045581;28;20436;-73
2023/09/16 11:36:57;;;;;;;3.30;3.10;;;29.10;48.40;;;;;;5040265;28;20483;-75
2023/09/16 11:39:33;;;;;;;3.45;3.20;;;29.30;47.70;;;;;;5042684;28;20493;-78
2023/09/16 11:42:00;;;;;;;3.78;3.47;;;29.40;47.60;;;;;;5052301;28;20431;-75
2023/09/16 11:44:27;;;;;;;2.90;2.70;;;29.50;47.30;;;;;;5043807;28;20437;-74
2023/09/16 11:46:55;;;;;;;3.38;3.17;;;29.60;46.70;;;;;;5043698;28;20433;-74
2023/09/16 11:49:22;;;;;;;3.50;3.30;;;29.70;45.40;;;;;;5036870;28;20430;-70
2023/09/16 11:51:51;;;;;;;3.33;3.10;;;29.60;46.60;;;;;;5036873;28;20443;-75
2023/09/16 11:54:18;;;;;;;3.50;3.20;;;29.40;45.70;;;;;;5045268;28;20623;-75
2023/09/16 11:56:45;;;;;;;3.30;3.10;;;29.30;46.20;;;;;;5048184;28;20449;-71
2023/09/16 11:59:12;;;;;;;3.70;3.40;;;29.30;47.00;;;;;;5040204;28;20455;-75
2023/09/16 12:01:40;;;;;;;3.70;3.40;;;29.60;45.70;;;;;;5037134;28;20433;-74
2023/09/16 12:04:08;;;;;;;3.22;3.03;;;29.80;45.60;;;;;;5034829;28;20458;-71
2023/09/16 12:06:36;;;;;;;3.10;2.90;;;29.90;45.80;;;;;;5041340;28;20428;-74
2023/09/16 12:09:07;;;;;;;3.25;3.05;;;29.90;45.70;;;;;;5037372;28;21039;-76
2023/09/16 12:11:34;;;;;;;3.10;2.90;;;30.10;45.20;;;;;;5042340;28;20558;-75
2023/09/16 12:14:03;;;;;;;3.35;3.15;;;30.10;44.80;;;;;;5045095;28;20437;-75
2023/09/16 12:16:30;;;;;;;3.00;2.80;;;30.20;44.10;;;;;;5042368;28;20559;-75
2023/09/16 12:18:57;;;;;;;3.15;2.95;;;30.00;45.10;;;;;;5043302;28;20776;-73
2023/09/16 12:21:23;;;;;;;3.00;2.80;;;30.00;44.70;;;;;;5040883;28;20437;-75
2023/09/16 12:23:52;;;;;;;3.20;3.00;;;29.80;45.60;;;;;;5040348;28;20588;-74
2023/09/16 12:26:21;;;;;;;3.20;3.00;;;30.00;45.60;;;;;;5022657;28;20881;-76
2023/09/16 12:28:48;;;;;;;4.30;3.10;;;30.10;43.90;;;;;;5021721;28;20469;-74
2023/09/16 12:31:21;;;;;;;2.92;2.72;;;29.80;44.60;;;;;;5025426;28;20435;-76
2023/09/16 12:33:53;;;;;;;3.10;2.80;;;29.90;45.30;;;;;;5033180;28;21049;-76
2023/09/16 12:36:22;;;;;;;3.20;3.00;;;30.00;44.10;;;;;;5026836;28;20507;-78
2023/09/16 12:38:50;;;;;;;3.10;2.90;;;30.00;44.10;;;;;;5023674;28;20528;-77
2023/09/16 12:41:17;;;;;;;3.30;3.10;;;29.90;45.00;;;;;;5038054;28;20452;-78
2023/09/16 12:43:46;;;;;;;3.40;3.10;;;30.10;44.30;;;;;;5025782;28;20522;-77
2023/09/16 12:46:15;;;;;;;3.40;3.10;;;30.30;44.00;;;;;;5021325;28;20927;-77
2023/09/16 12:48:47;;;;;;;2.90;2.70;;;30.40;44.00;;;;;;5021714;28;20443;-76
2023/09/16 12:51:15;;;;;;;3.13;2.83;;;30.50;43.60;;;;;;5020746;28;20427;-75